»·PEaware :: SWA1440 KLAS-KATL

SWA1440 :: KLAS-KATL

FLIGHT INFORMATION

Flight Status: Arrived
Operator:
Southwest Airlines
More flights by this operator :: More flights under this callsign
Pilot: Henderson P. (1210)
Aircraft: BOEING 737-800
(B738)
More flights by this aircraft type
Origin: KLAS McCarran Intl
United States
Destination: KATL Hartsfield-Jackson Atlanta
United States
More flights between these airports :: More routes between these airports
Route: COWBY8 GUP KA30U KA30W KF30A KM30G MEM HUTCC KNSAW RUSSA GLAVN1
File this flight plan on PilotEdge
Remarks:
Altitude:
(Current/Filed)
35,000ft
Speed:
(Current/Filed)
448kts
Departed: 07-Feb-19 07:59 AM
Arrived: 07-Feb-19 11:11 AM
Distance/Time
Traveled:
1535nm/3:11
Distance/Time
To Go:
Arrived

Flight Plot

Page will automatically refresh every two minutes.

Flight plan parsing failed; only flown route is shown


Map Options




Map Legend


Flown Route
Filed Route
Departure Airport
Arrival Airport
Navaid (VOR, NDB)
Fix

Horizontal Profiles

Position Reports

Time Latitude Longitude Heading Altitude Ground
Speed
07-Feb-19 07:15 36.080907 -115.145939 255 2188ft 0kts
07-Feb-19 07:17 36.080907 -115.145939 255 2188ft 0kts
07-Feb-19 07:17 36.080907 -115.145939 255 2188ft 0kts
07-Feb-19 07:19 36.080907 -115.145939 255 2188ft 0kts
07-Feb-19 07:19 36.080907 -115.145939 255 2188ft 0kts
07-Feb-19 07:20 36.080907 -115.145939 255 2188ft 0kts
07-Feb-19 07:21 36.080907 -115.145939 255 2188ft 0kts
07-Feb-19 07:22 36.080907 -115.145939 255 2188ft 0kts
07-Feb-19 07:23 36.080907 -115.145939 255 2188ft 0kts
07-Feb-19 07:24 36.080907 -115.145939 255 2188ft 0kts
07-Feb-19 07:25 36.080907 -115.145939 255 2188ft 0kts
07-Feb-19 07:26 36.080907 -115.145939 255 2188ft 0kts
07-Feb-19 07:27 36.080907 -115.145939 255 2188ft 0kts
07-Feb-19 07:28 36.080907 -115.145939 255 2188ft 0kts
07-Feb-19 07:29 36.080907 -115.145939 255 2188ft 0kts
07-Feb-19 07:30 36.080907 -115.145939 255 2188ft 0kts
07-Feb-19 07:31 36.080907 -115.145939 255 2188ft 0kts
07-Feb-19 07:32 36.080907 -115.145939 255 2188ft 0kts
07-Feb-19 07:33 36.080907 -115.145939 255 2188ft 0kts
07-Feb-19 07:34 36.080907 -115.145939 255 2188ft 0kts
07-Feb-19 07:35 36.080907 -115.145939 255 2188ft 0kts
07-Feb-19 07:36 36.080907 -115.145939 255 2188ft 0kts
07-Feb-19 07:37 36.080907 -115.145939 255 2188ft 0kts
07-Feb-19 07:38 36.080907 -115.145939 255 2188ft 0kts
07-Feb-19 07:39 36.080907 -115.145939 255 2188ft 0kts
07-Feb-19 07:40 36.080907 -115.145939 255 2188ft 0kts
07-Feb-19 07:41 36.080907 -115.145939 255 2188ft 0kts
07-Feb-19 07:42 36.080907 -115.145939 255 2188ft 0kts
07-Feb-19 07:43 36.080907 -115.145939 255 2188ft 0kts
07-Feb-19 07:44 36.080907 -115.145939 255 2188ft 0kts
07-Feb-19 07:45 36.080907 -115.145939 255 2188ft 0kts
07-Feb-19 07:46 36.080907 -115.145939 255 2188ft 0kts
07-Feb-19 07:47 36.080907 -115.145939 255 2188ft 0kts
07-Feb-19 07:48 36.080941 -115.145786 251 2188ft 2kts
07-Feb-19 07:49 36.081302 -115.145279 158 2188ft 2kts
07-Feb-19 07:50 36.081575 -115.145437 154 2188ft 0kts
07-Feb-19 07:51 36.081575 -115.145437 154 2188ft 0kts
07-Feb-19 07:52 36.081575 -115.145437 154 2188ft 0kts
07-Feb-19 07:53 36.080109 -115.144856 178 2188ft 16kts
07-Feb-19 07:54 36.077797 -115.147358 275 2188ft 23kts
07-Feb-19 07:55 36.078017 -115.156674 266 2188ft 28kts
07-Feb-19 07:56 36.076554 -115.163964 205 2188ft 21kts
07-Feb-19 07:57 36.075756 -115.166646 24 2188ft 39kts
07-Feb-19 07:58 36.109041 -115.147211 26 2769ft 186kts
07-Feb-19 07:59 36.134137 -115.087920 80 4495ft 242kts
07-Feb-19 08:00 36.143127 -114.998962 82 7045ft 269kts
07-Feb-19 08:01 36.151824 -114.904657 81 9719ft 283kts
07-Feb-19 08:02 36.162317 -114.800799 74 11321ft 334kts
07-Feb-19 08:03 36.180109 -114.679924 94 13049ft 381kts
07-Feb-19 08:04 36.110715 -114.583640 158 15488ft 402kts
07-Feb-19 08:05 36.021551 -114.497147 121 17781ft 423kts
07-Feb-19 08:06 35.990102 -114.355430 98 19822ft 438kts
07-Feb-19 08:07 35.968475 -114.204762 99 21706ft 453kts
07-Feb-19 08:08 35.945448 -114.048936 99 23408ft 467kts
07-Feb-19 08:09 35.921557 -113.889597 100 24958ft 480kts
07-Feb-19 08:10 35.895687 -113.725903 100 26403ft 490kts
07-Feb-19 08:11 35.869130 -113.559764 100 27647ft 500kts
07-Feb-19 08:12 35.842110 -113.389499 100 28766ft 509kts
07-Feb-19 08:13 35.814727 -113.218265 101 30138ft 509kts
07-Feb-19 08:14 35.786994 -113.047396 101 31394ft 509kts
07-Feb-19 08:15 35.758940 -112.876369 101 32632ft 508kts
07-Feb-19 08:16 35.730738 -112.706065 101 33748ft 508kts
07-Feb-19 08:17 35.702278 -112.535764 102 34763ft 508kts
07-Feb-19 08:18 35.673496 -112.365100 102 35236ft 512kts
07-Feb-19 08:19 35.644487 -112.193213 102 35237ft 512kts
07-Feb-19 08:20 35.615049 -112.022395 102 35230ft 511kts
07-Feb-19 08:21 35.591093 -111.849873 92 35229ft 513kts
07-Feb-19 08:22 35.586373 -111.674430 91 35228ft 513kts
07-Feb-19 08:23 35.581253 -111.499221 91 35244ft 514kts
07-Feb-19 08:24 35.576344 -111.323843 91 35248ft 514kts
07-Feb-19 08:25 35.570943 -111.146798 91 35261ft 524kts
07-Feb-19 08:26 35.565118 -110.966962 91 35271ft 528kts
07-Feb-19 08:27 35.558915 -110.786782 92 35279ft 527kts
07-Feb-19 08:28 35.552341 -110.608030 92 35293ft 521kts
07-Feb-19 08:29 35.545638 -110.429923 92 35301ft 523kts
07-Feb-19 08:30 35.538682 -110.251812 92 35297ft 524kts
07-Feb-19 08:31 35.531412 -110.072369 92 35286ft 524kts
07-Feb-19 08:32 35.523907 -109.893616 92 35268ft 527kts
07-Feb-19 08:33 35.516096 -109.713968 92 35260ft 526kts
07-Feb-19 08:34 35.508023 -109.534370 93 35247ft 526kts
07-Feb-19 08:35 35.499713 -109.355412 93 35238ft 526kts
07-Feb-19 08:36 35.491355 -109.175915 93 35232ft 527kts
07-Feb-19 08:37 35.482371 -108.996537 94 35235ft 527kts
07-Feb-19 08:38 35.468864 -108.817020 101 35239ft 527kts
07-Feb-19 08:39 35.440555 -108.640785 103 35240ft 527kts
07-Feb-19 08:40 35.412284 -108.464172 103 35241ft 528kts
07-Feb-19 08:41 35.384746 -108.287446 102 35241ft 528kts
07-Feb-19 08:42 35.356720 -108.110466 103 35239ft 528kts
07-Feb-19 08:43 35.328437 -107.933920 103 35239ft 530kts
07-Feb-19 08:44 35.299736 -107.756868 104 35238ft 531kts
07-Feb-19 08:45 35.270735 -107.579666 104 35243ft 530kts
07-Feb-19 08:46 35.241421 -107.402170 105 35237ft 531kts
07-Feb-19 08:47 35.211916 -107.225224 105 35233ft 531kts
07-Feb-19 08:48 35.182083 -107.048008 106 35235ft 532kts
07-Feb-19 08:49 35.151980 -106.870843 106 35239ft 532kts
07-Feb-19 08:50 35.121652 -106.693997 106 35244ft 533kts
07-Feb-19 08:51 35.091002 -106.516879 107 35263ft 534kts
07-Feb-19 08:52 35.060097 -106.338901 107 35246ft 535kts
07-Feb-19 08:53 35.028872 -106.161720 107 35218ft 534kts
07-Feb-19 08:54 35.000561 -105.983586 99 35200ft 541kts
07-Feb-19 08:55 35.000583 -105.797542 93 35174ft 549kts
07-Feb-19 08:56 35.001872 -105.611793 94 35127ft 548kts
07-Feb-19 08:57 35.003101 -105.425864 94 35119ft 549kts
07-Feb-19 08:58 35.003758 -105.239696 94 35115ft 550kts
07-Feb-19 08:59 35.004018 -105.053034 95 35111ft 550kts
07-Feb-19 09:00 35.003965 -104.866509 95 35114ft 550kts
07-Feb-19 09:01 35.003616 -104.679287 95 35124ft 552kts
07-Feb-19 09:02 35.002991 -104.491966 96 35144ft 552kts
07-Feb-19 09:03 35.002312 -104.304576 96 35153ft 553kts
07-Feb-19 09:04 35.000984 -104.117066 96 35160ft 552kts
07-Feb-19 09:05 35.000729 -103.929419 95 35185ft 557kts
07-Feb-19 09:06 35.003537 -103.740399 96 35182ft 557kts
07-Feb-19 09:07 35.005936 -103.551743 96 35184ft 558kts
07-Feb-19 09:08 35.008586 -103.362180 96 35188ft 557kts
07-Feb-19 09:10 35.010647 -103.173507 97 35193ft 558kts
07-Feb-19 09:11 35.012350 -102.984000 97 35207ft 558kts
07-Feb-19 09:12 35.013746 -102.794185 97 35225ft 559kts
07-Feb-19 09:13 35.014830 -102.604640 98 35239ft 559kts
07-Feb-19 09:14 35.015626 -102.414792 98 35249ft 559kts
07-Feb-19 09:15 35.016121 -102.225145 98 35252ft 558kts
07-Feb-19 09:16 35.016323 -102.036091 99 35258ft 559kts
07-Feb-19 09:17 35.016248 -101.845421 99 35264ft 563kts
07-Feb-19 09:18 35.015839 -101.654819 100 35270ft 562kts
07-Feb-19 09:19 35.015147 -101.463871 100 35277ft 563kts
07-Feb-19 09:20 35.014169 -101.273023 100 35283ft 562kts
07-Feb-19 09:21 35.012886 -101.082808 101 35292ft 562kts
07-Feb-19 09:22 35.011300 -100.891366 101 35315ft 563kts
07-Feb-19 09:23 35.009419 -100.700484 101 35328ft 564kts
07-Feb-19 09:24 35.007221 -100.508457 101 35334ft 565kts
07-Feb-19 09:25 35.004966 -100.317406 102 35336ft 563kts
07-Feb-19 09:25 35.002612 -100.158036 102 35359ft 564kts
07-Feb-19 09:27 35.000479 -99.934403 99 35363ft 571kts
07-Feb-19 09:28 35.005458 -99.740760 99 35363ft 571kts
07-Feb-19 09:29 35.009669 -99.546638 99 35365ft 573kts
07-Feb-19 09:29 35.013315 -99.385489 99 35371ft 571kts
07-Feb-19 09:30 35.017101 -99.191064 99 35360ft 571kts
07-Feb-19 09:32 35.020991 -98.965200 100 35359ft 572kts
07-Feb-19 09:33 35.023984 -98.770896 100 35356ft 572kts
07-Feb-19 09:33 35.026193 -98.610120 100 35351ft 570kts
07-Feb-19 09:34 35.028608 -98.416466 101 35341ft 570kts
07-Feb-19 09:35 35.030708 -98.222795 101 35343ft 570kts
07-Feb-19 09:36 35.032495 -98.029602 101 35341ft 571kts
07-Feb-19 09:37 35.033974 -97.836161 101 35338ft 569kts
07-Feb-19 09:38 35.035147 -97.642750 101 35316ft 568kts
07-Feb-19 09:39 35.035999 -97.449955 101 35285ft 568kts
07-Feb-19 09:40 35.036507 -97.257670 101 35286ft 568kts
07-Feb-19 09:41 35.036810 -97.064991 101 35302ft 567kts
07-Feb-19 09:42 35.036771 -96.872765 101 35316ft 566kts
07-Feb-19 09:43 35.036426 -96.681296 101 35317ft 565kts
07-Feb-19 09:44 35.035770 -96.489700 102 35315ft 564kts
07-Feb-19 09:45 35.034825 -96.298572 102 35308ft 564kts
07-Feb-19 09:46 35.033575 -96.107110 102 35299ft 563kts
07-Feb-19 09:47 35.031998 -95.916013 101 35288ft 562kts
07-Feb-19 09:48 35.030181 -95.725804 101 35282ft 561kts
07-Feb-19 09:49 35.028047 -95.535664 102 35282ft 560kts
07-Feb-19 09:50 35.025624 -95.345876 101 35290ft 559kts
07-Feb-19 09:51 35.022899 -95.155798 101 35291ft 560kts
07-Feb-19 09:52 35.019882 -94.965921 101 35283ft 558kts
07-Feb-19 09:53 35.016589 -94.777166 101 35273ft 557kts
07-Feb-19 09:54 35.013004 -94.588492 101 35269ft 558kts
07-Feb-19 09:55 35.009125 -94.399259 101 35257ft 557kts
07-Feb-19 09:56 35.005177 -94.210771 101 35226ft 556kts
07-Feb-19 09:57 35.000541 -94.021430 101 35696ft 557kts
07-Feb-19 09:58 35.002175 -93.832258 96 36194ft 559kts
07-Feb-19 09:59 35.005956 -93.642203 97 36695ft 559kts
07-Feb-19 10:00 35.009455 -93.453076 97 37113ft 558kts
07-Feb-19 10:01 35.012515 -93.264062 97 37122ft 557kts
07-Feb-19 10:02 35.015101 -93.075596 97 37119ft 558kts
07-Feb-19 10:03 35.017345 -92.886311 97 37106ft 557kts
07-Feb-19 10:04 35.019314 -92.697326 97 37092ft 557kts
07-Feb-19 10:05 35.020981 -92.508188 96 37080ft 557kts
07-Feb-19 10:06 35.022332 -92.319221 96 37052ft 558kts
07-Feb-19 10:07 35.023401 -92.130229 96 37047ft 556kts
07-Feb-19 10:08 35.024121 -91.941254 96 37033ft 557kts
07-Feb-19 10:09 35.024671 -91.752399 96 37011ft 557kts
07-Feb-19 10:10 35.024964 -91.563279 97 37027ft 556kts
07-Feb-19 10:11 35.024804 -91.373824 97 37019ft 557kts
07-Feb-19 10:12 35.024398 -91.185101 97 37012ft 556kts
07-Feb-19 10:13 35.023716 -90.996653 97 36990ft 556kts
07-Feb-19 10:14 35.022744 -90.808271 97 36984ft 556kts
07-Feb-19 10:15 35.021484 -90.619284 97 36975ft 555kts
07-Feb-19 10:16 35.019930 -90.431229 97 36966ft 555kts
07-Feb-19 10:17 35.018644 -90.271945 97 36960ft 554kts
07-Feb-19 10:18 35.016421 -90.084174 97 36953ft 554kts
07-Feb-19 10:19 35.004022 -89.899182 107 36952ft 541kts
07-Feb-19 10:20 34.977777 -89.717922 107 36960ft 542kts
07-Feb-19 10:21 34.951777 -89.536810 107 36959ft 542kts
07-Feb-19 10:22 34.926125 -89.356032 107 36958ft 541kts
07-Feb-19 10:23 34.900014 -89.175436 107 36974ft 542kts
07-Feb-19 10:24 34.873547 -88.994756 107 36989ft 541kts
07-Feb-19 10:25 34.846827 -88.814412 107 36983ft 541kts
07-Feb-19 10:26 34.819817 -88.634049 107 36981ft 541kts
07-Feb-19 10:27 34.792577 -88.454041 107 36984ft 540kts
07-Feb-19 10:28 34.765108 -88.274356 106 36993ft 540kts
07-Feb-19 10:29 34.737338 -88.094657 106 36483ft 539kts
07-Feb-19 10:30 34.709667 -87.917440 106 35481ft 531kts
07-Feb-19 10:31 34.682167 -87.741259 105 34483ft 531kts
07-Feb-19 10:32 34.653977 -87.564500 105 33483ft 532kts
07-Feb-19 10:33 34.625094 -87.388419 107 33059ft 531kts
07-Feb-19 10:34 34.592720 -87.213667 107 33064ft 532kts
07-Feb-19 10:35 34.560915 -87.038054 106 33062ft 532kts
07-Feb-19 10:36 34.525974 -86.864394 113 33062ft 526kts
07-Feb-19 10:37 34.480753 -86.695338 112 33067ft 527kts
07-Feb-19 10:38 34.436228 -86.525989 112 33084ft 526kts
07-Feb-19 10:39 34.391960 -86.356795 112 33101ft 525kts
07-Feb-19 10:40 34.347290 -86.188884 112 33108ft 524kts
07-Feb-19 10:41 34.303314 -86.020705 111 32167ft 522kts
07-Feb-19 10:42 34.260249 -85.855902 112 30379ft 504kts
07-Feb-19 10:43 34.218905 -85.696622 111 28507ft 490kts
07-Feb-19 10:44 34.178207 -85.541773 112 26665ft 477kts
07-Feb-19 10:45 34.138216 -85.391008 112 24840ft 466kts
07-Feb-19 10:46 34.100163 -85.243497 112 23031ft 456kts
07-Feb-19 10:47 34.062363 -85.099225 115 21247ft 444kts
07-Feb-19 10:48 33.991641 -84.989593 149 19489ft 403kts
07-Feb-19 10:49 33.915202 -84.911365 148 18757ft 372kts
07-Feb-19 10:50 33.840817 -84.834369 149 18510ft 333kts
07-Feb-19 10:51 33.773951 -84.765420 150 18325ft 300kts
07-Feb-19 10:52 33.731564 -84.681322 100 17807ft 326kts
07-Feb-19 10:53 33.732880 -84.585719 94 17165ft 323kts
07-Feb-19 10:54 33.732983 -84.487475 95 16299ft 316kts
07-Feb-19 10:55 33.732986 -84.382850 94 15240ft 309kts
07-Feb-19 10:56 33.733009 -84.280956 94 14209ft 301kts
07-Feb-19 10:57 33.733064 -84.179718 93 12573ft 319kts
07-Feb-19 10:58 33.733143 -84.069929 93 10715ft 327kts
07-Feb-19 10:59 33.733551 -83.962052 93 9356ft 318kts
07-Feb-19 11:00 33.711286 -83.870255 161 8173ft 279kts
07-Feb-19 11:01 33.660922 -83.916772 258 6731ft 277kts
07-Feb-19 11:02 33.649691 -84.005947 258 5808ft 250kts
07-Feb-19 11:03 33.649376 -84.083957 265 5286ft 220kts
07-Feb-19 11:04 33.649621 -84.153918 265 4666ft 199kts
07-Feb-19 11:05 33.649688 -84.219136 265 3841ft 186kts
07-Feb-19 11:06 33.649733 -84.277355 265 3190ft 162kts
07-Feb-19 11:07 33.649716 -84.327074 265 2403ft 139kts
07-Feb-19 11:08 33.649648 -84.374325 264 1597ft 140kts
07-Feb-19 11:09 33.649553 -84.421041 267 1034ft 117kts
07-Feb-19 11:10 33.648822 -84.437467 206 1034ft 16kts
07-Feb-19 11:11 33.646788 -84.443361 179 1034ft 16kts
07-Feb-19 11:12 33.644394 -84.438951 82 1034ft 20kts
07-Feb-19 11:13 33.642778 -84.433973 175 1034ft 19kts
07-Feb-19 11:14 33.638716 -84.433371 91 1034ft 5kts
07-Feb-19 11:15 33.638717 -84.433203 89 1034ft 0kts
07-Feb-19 11:17 33.638717 -84.433203 89 1034ft 0kts
07-Feb-19 11:18 33.638717 -84.433203 89 1034ft 0kts
07-Feb-19 11:19 33.638717 -84.433203 89 1034ft 0kts
07-Feb-19 11:20 33.638717 -84.433203 89 1034ft 0kts
07-Feb-19 11:21 33.638717 -84.433203 89 1034ft 0kts
07-Feb-19 11:22 33.638717 -84.433203 89 1034ft 0kts
07-Feb-19 11:23 39.992630 -82.873249 180 867ft 0kts

Navigation Log

Ident Type
Flight plan parsing failed, navigation log unavailable